createdAt,value
2023-06-11T00:01:45.658Z,59.72
2023-06-11T00:06:48.103Z,59.21
2023-06-11T00:11:50.452Z,58.75
2023-06-11T00:16:52.804Z,59.90
2023-06-11T00:21:57.432Z,60.18
2023-06-11T00:27:02.868Z,61.46
2023-06-11T00:32:05.718Z,64.36
2023-06-11T00:37:08.056Z,64.40
2023-06-11T00:42:11.586Z,65.79
2023-06-11T00:47:16.348Z,67.48
2023-06-11T00:52:19.777Z,68.92
2023-06-11T00:57:26.242Z,68.35
2023-06-11T01:02:40.611Z,66.62
2023-06-11T01:07:51.927Z,64.85
2023-06-11T01:13:02.710Z,64.51
2023-06-11T01:18:20.539Z,63.63
2023-06-11T01:23:42.372Z,64.73
2023-06-11T01:28:51.268Z,64.35
2023-06-11T01:33:54.344Z,63.86
2023-06-11T01:39:00.244Z,67.99
2023-06-11T01:44:30.634Z,69.57
2023-06-11T01:49:33.029Z,68.67
2023-06-11T01:54:35.668Z,68.25
2023-06-11T01:59:37.865Z,67.81
2023-06-11T02:04:40.051Z,68.06
2023-06-11T02:09:42.392Z,67.75
2023-06-11T02:14:44.633Z,69.39
2023-06-11T02:19:46.778Z,70.33
2023-06-11T02:24:49.116Z,70.47
2023-06-11T02:29:51.584Z,73.61
2023-06-11T02:34:53.891Z,73.82
2023-06-11T02:39:56.297Z,70.31
2023-06-11T02:44:58.489Z,68.84
2023-06-11T02:50:00.980Z,69.23
2023-06-11T02:55:03.463Z,73.12
2023-06-11T03:00:07.384Z,70.39
2023-06-11T03:05:10.153Z,69.64
2023-06-11T03:10:13.672Z,70.98
2023-06-11T03:15:16.082Z,71.32
2023-06-11T03:25:20.606Z,77.69
2023-06-11T03:30:22.783Z,75.55
2023-06-11T03:35:25.224Z,71.79
2023-06-11T03:40:28.457Z,72.01
2023-06-11T03:45:32.008Z,76.77
2023-06-11T03:50:34.890Z,72.60
2023-06-11T03:55:37.409Z,73.05
2023-06-11T04:00:40.662Z,75.12
2023-06-11T04:05:43.714Z,76.28
2023-06-11T04:10:46.561Z,72.07
2023-06-11T04:15:48.791Z,69.35
2023-06-11T04:20:51.181Z,69.66
2023-06-11T04:25:56.545Z,70.84
2023-06-11T04:31:01.113Z,70.37
2023-06-11T04:36:09.938Z,70.11
2023-06-11T04:41:13.554Z,71.60
2023-06-11T04:46:17.650Z,70.15
2023-06-11T04:51:21.866Z,68.25
2023-06-11T04:56:27.048Z,67.58
2023-06-11T05:01:31.699Z,66.50
2023-06-11T05:06:35.648Z,66.70
2023-06-11T05:11:45.505Z,66.30
2023-06-11T05:16:51.829Z,68.13
2023-06-11T05:21:54.461Z,65.62
2023-06-11T05:26:57.808Z,67.91
2023-06-11T05:32:01.817Z,67.77
2023-06-11T05:37:05.443Z,67.52
2023-06-11T05:42:08.785Z,67.31
2023-06-11T05:47:13.188Z,67.23
2023-06-11T05:52:15.506Z,67.00
2023-06-11T05:57:24.272Z,68.62
2023-06-11T06:02:30.024Z,67.29
2023-06-11T06:07:34.554Z,65.79
2023-06-11T06:12:36.770Z,65.76
2023-06-11T06:17:39.880Z,65.61
2023-06-11T06:22:42.701Z,66.85
2023-06-11T06:27:45.097Z,68.57
2023-06-11T06:32:47.675Z,66.92
2023-06-11T06:37:50.601Z,66.02
2023-06-11T06:42:52.908Z,66.01
2023-06-11T06:48:03.374Z,66.07
2023-06-11T06:53:06.255Z,63.12
2023-06-11T06:58:08.514Z,61.89
2023-06-11T07:03:13.518Z,60.58
2023-06-11T07:08:16.273Z,60.02
2023-06-11T07:13:21.446Z,59.40
2023-06-11T07:18:23.943Z,59.38
2023-06-11T07:23:29.177Z,59.25
2023-06-11T07:28:31.969Z,56.65
2023-06-11T07:33:35.215Z,55.77
2023-06-11T07:38:37.766Z,54.75
2023-06-11T07:43:40.712Z,52.89
2023-06-11T07:48:46.426Z,53.68
2023-06-11T07:53:48.981Z,50.77
2023-06-11T07:58:51.338Z,50.35
2023-06-11T08:03:53.564Z,48.13
2023-06-11T08:08:57.117Z,48.68
2023-06-11T08:13:59.314Z,46.34
2023-06-11T08:19:01.810Z,47.92
2023-06-11T08:24:05.078Z,44.96
2023-06-11T08:29:16.835Z,45.05
2023-06-11T08:34:20.248Z,46.17
2023-06-11T08:39:22.440Z,44.57
2023-06-11T08:44:27.244Z,44.99
2023-06-11T08:49:31.703Z,44.59
2023-06-11T08:54:34.177Z,43.89
2023-06-11T08:59:36.380Z,42.97
2023-06-11T09:04:43.051Z,42.34
2023-06-11T09:09:45.324Z,39.78
2023-06-11T09:14:53.746Z,39.81
2023-06-11T09:19:57.389Z,40.10
2023-06-11T09:25:04.992Z,44.45
2023-06-11T09:30:13.000Z,44.32
2023-06-11T09:35:20.200Z,40.87
2023-06-11T09:40:25.185Z,42.68
2023-06-11T09:45:27.796Z,38.16
2023-06-11T09:50:34.285Z,36.01
2023-06-11T09:55:37.051Z,39.33
2023-06-11T10:00:39.676Z,37.31
2023-06-11T10:05:42.319Z,37.22
2023-06-11T10:10:52.881Z,32.52
2023-06-11T10:15:55.333Z,37.67
2023-06-11T10:21:06.019Z,37.42
2023-06-11T10:26:13.562Z,37.44
2023-06-11T10:31:41.062Z,35.67
2023-06-11T10:36:43.383Z,30.24
2023-06-11T10:41:45.959Z,29.74
2023-06-11T10:46:54.668Z,32.81
2023-06-11T10:51:57.324Z,29.44
2023-06-11T10:57:04.475Z,32.69
2023-06-11T11:02:13.510Z,29.49
2023-06-11T11:07:16.060Z,31.06
2023-06-11T11:12:18.308Z,31.38
2023-06-11T11:17:20.614Z,28.50
2023-06-11T11:22:22.856Z,29.20
2023-06-11T11:27:25.037Z,28.89
2023-06-11T11:32:35.576Z,31.43
2023-06-11T11:37:37.928Z,30.47
2023-06-11T11:42:50.826Z,29.97
2023-06-11T11:47:53.793Z,29.33
2023-06-11T11:53:16.635Z,30.18
2023-06-11T11:58:18.986Z,30.80
2023-06-11T12:03:23.660Z,32.70
2023-06-11T12:08:28.324Z,29.71
2023-06-11T12:13:31.309Z,36.42
2023-06-11T12:18:34.829Z,34.89
2023-06-11T12:23:37.024Z,36.24
2023-06-11T12:28:39.299Z,35.51
2023-06-11T12:33:41.479Z,29.25
2023-06-11T12:38:43.748Z,38.11
2023-06-11T12:43:45.914Z,37.18
2023-06-11T12:48:48.052Z,28.69
2023-06-11T12:53:53.934Z,29.45
2023-06-11T12:58:58.418Z,30.90
2023-06-11T13:04:00.871Z,37.50
2023-06-11T13:09:04.051Z,34.85
2023-06-11T13:14:06.406Z,26.96
2023-06-11T13:19:09.345Z,27.10
2023-06-11T13:24:11.750Z,27.06
2023-06-11T13:29:14.072Z,32.67
2023-06-11T13:34:16.431Z,30.80
2023-06-11T13:39:18.830Z,29.87
2023-06-11T13:44:21.066Z,32.69
2023-06-11T13:49:25.183Z,33.20
2023-06-11T13:54:29.675Z,27.96
2023-06-11T13:59:32.952Z,31.33
2023-06-11T14:04:35.168Z,29.13
2023-06-11T14:09:37.410Z,32.72
2023-06-11T14:14:39.632Z,31.41
2023-06-11T14:19:41.799Z,32.42
2023-06-11T14:24:44.318Z,28.69
2023-06-11T14:29:46.521Z,29.82
2023-06-11T14:34:48.681Z,28.06
2023-06-11T14:39:50.941Z,36.43
2023-06-11T14:44:53.197Z,38.92
2023-06-11T14:49:55.462Z,38.07
2023-06-11T14:54:59.768Z,37.03
2023-06-11T15:00:05.492Z,34.14
2023-06-11T15:05:08.728Z,37.51
2023-06-11T15:10:11.988Z,35.74
2023-06-11T15:15:14.474Z,36.84
2023-06-11T15:20:16.777Z,37.59
2023-06-11T15:25:19.157Z,34.55
2023-06-11T15:30:21.544Z,38.65
2023-06-11T15:35:23.773Z,40.17
2023-06-11T15:40:25.943Z,38.01
2023-06-11T15:45:28.337Z,37.89
2023-06-11T15:50:30.729Z,35.66
2023-06-11T15:55:33.135Z,37.12
2023-06-11T16:00:35.455Z,34.17
2023-06-11T16:05:38.888Z,34.45
2023-06-11T16:10:41.158Z,31.58
2023-06-11T16:15:45.113Z,32.41
2023-06-11T16:20:47.551Z,36.86
2023-06-11T16:25:49.939Z,35.60
2023-06-11T16:30:52.169Z,32.67
2023-06-11T16:35:54.266Z,33.01
2023-06-11T16:40:56.880Z,33.15
2023-06-11T16:45:59.142Z,38.36
2023-06-11T16:51:01.559Z,41.48
2023-06-11T16:56:04.290Z,37.56
2023-06-11T17:01:06.551Z,39.22
2023-06-11T17:06:08.729Z,35.27
2023-06-11T17:11:11.212Z,34.90
2023-06-11T17:16:13.449Z,34.45
2023-06-11T17:21:15.812Z,36.47
2023-06-11T17:26:17.993Z,33.51
2023-06-11T17:31:20.428Z,32.98
2023-06-11T17:36:22.638Z,33.64
2023-06-11T17:41:25.049Z,40.50
2023-06-11T17:46:27.334Z,39.62
2023-06-11T17:51:29.611Z,40.47
2023-06-11T17:56:32.113Z,35.69
2023-06-11T18:01:36.369Z,42.15
2023-06-11T18:06:39.430Z,35.92
2023-06-11T18:11:42.661Z,38.27
2023-06-11T18:16:44.873Z,37.10
2023-06-11T18:21:47.119Z,34.53
2023-06-11T18:26:49.427Z,34.73
2023-06-11T18:31:51.662Z,34.98
2023-06-11T18:36:53.868Z,36.78
2023-06-11T18:41:56.374Z,38.04
2023-06-11T18:47:02.249Z,36.07
2023-06-11T18:52:06.503Z,40.36
2023-06-11T18:57:09.747Z,38.59
2023-06-11T19:02:11.958Z,38.42
2023-06-11T19:07:16.513Z,36.89
2023-06-11T19:12:19.179Z,37.23
2023-06-11T19:17:21.626Z,36.76
2023-06-11T19:22:23.933Z,37.43
2023-06-11T19:27:29.641Z,37.34
2023-06-11T19:32:32.272Z,38.19
2023-06-11T19:37:35.938Z,38.26
2023-06-11T19:42:38.556Z,38.34
2023-06-11T19:47:41.006Z,38.82
2023-06-11T19:52:43.342Z,39.86
2023-06-11T19:57:45.873Z,40.58
2023-06-11T20:02:49.204Z,39.58
2023-06-11T20:07:51.436Z,40.21
2023-06-11T20:12:53.654Z,41.48
2023-06-11T20:17:55.921Z,40.63
2023-06-11T20:22:58.269Z,40.36
2023-06-11T20:28:00.593Z,41.87
2023-06-11T20:33:03.417Z,41.28
2023-06-11T20:38:05.815Z,41.38
2023-06-11T20:43:08.180Z,41.41
2023-06-11T20:48:10.401Z,42.07
2023-06-11T20:53:24.114Z,42.20
2023-06-11T20:58:35.203Z,42.46
2023-06-11T21:03:37.423Z,42.50
2023-06-11T21:08:39.600Z,42.96
2023-06-11T21:13:41.833Z,42.72
2023-06-11T21:18:44.035Z,42.38
2023-06-11T21:23:46.352Z,43.64
2023-06-11T21:28:48.873Z,43.73
2023-06-11T21:33:51.010Z,44.39
2023-06-11T21:38:53.186Z,44.09
2023-06-11T21:43:55.473Z,45.08
2023-06-11T21:48:59.321Z,46.10
2023-06-11T21:54:01.897Z,52.65
2023-06-11T21:59:04.232Z,49.77
2023-06-11T22:04:06.532Z,50.56
2023-06-11T22:09:14.870Z,51.88
2023-06-11T22:14:17.219Z,51.68
2023-06-11T22:19:20.030Z,51.28
2023-06-11T22:24:22.588Z,50.41
2023-06-11T22:29:24.760Z,51.16
2023-06-11T22:34:26.929Z,50.59
2023-06-11T22:39:29.172Z,51.57
2023-06-11T22:44:31.526Z,47.93
2023-06-11T22:49:34.415Z,52.24
2023-06-11T22:54:39.409Z,53.78
2023-06-11T22:59:41.899Z,54.43
2023-06-11T23:04:46.393Z,54.08
2023-06-11T23:09:48.881Z,53.34
2023-06-11T23:14:51.097Z,54.09
2023-06-11T23:19:53.242Z,54.11
2023-06-11T23:24:55.541Z,54.62
2023-06-11T23:29:57.928Z,55.10
2023-06-11T23:35:01.565Z,54.31
2023-06-11T23:40:05.668Z,52.02
2023-06-11T23:45:08.400Z,53.10
2023-06-11T23:50:11.481Z,55.59
2023-06-11T23:55:15.099Z,54.54
